createdAt,value
2019-05-10T00:00:44.702Z,996.83
2019-05-10T00:01:44.695Z,996.87
2019-05-10T00:02:44.681Z,996.84
2019-05-10T00:03:44.704Z,996.95
2019-05-10T00:04:44.675Z,996.95
2019-05-10T00:05:44.647Z,996.90
2019-05-10T00:06:44.635Z,996.94
2019-05-10T00:07:44.634Z,996.94
2019-05-10T00:08:44.631Z,996.91
2019-05-10T00:09:44.628Z,996.93
2019-05-10T00:10:44.600Z,996.93
2019-05-10T00:11:48.434Z,996.91
2019-05-10T00:12:44.583Z,996.93
2019-05-10T00:13:44.557Z,996.96
2019-05-10T00:14:44.542Z,996.95
2019-05-10T00:15:44.565Z,996.94
2019-05-10T00:16:44.522Z,996.95
2019-05-10T00:17:44.513Z,996.96
2019-05-10T00:18:44.514Z,996.95
2019-05-10T00:19:44.490Z,996.95
2019-05-10T00:20:44.538Z,996.92
2019-05-10T00:21:44.470Z,996.95
2019-05-10T00:22:44.457Z,996.97
2019-05-10T00:23:44.444Z,997.00
2019-05-10T00:24:44.432Z,996.98
2019-05-10T00:25:44.420Z,996.92
2019-05-10T00:26:44.450Z,997.00
2019-05-10T00:27:44.438Z,996.98
2019-05-10T00:28:44.385Z,997.01
2019-05-10T00:29:44.382Z,996.99
2019-05-10T00:30:44.371Z,997.02
2019-05-10T00:31:44.368Z,996.99
2019-05-10T00:32:44.340Z,997.03
2019-05-10T00:33:44.356Z,996.98
2019-05-10T00:34:44.316Z,996.98
2019-05-10T00:35:44.307Z,996.98
2019-05-10T00:36:44.294Z,997.00
2019-05-10T00:37:44.280Z,997.04
2019-05-10T00:38:44.271Z,997.02
2019-05-10T00:39:44.300Z,997.01
2019-05-10T00:40:44.254Z,997.04
2019-05-10T00:41:44.260Z,997.06
2019-05-10T00:42:44.270Z,997.03
2019-05-10T00:43:44.214Z,997.03
2019-05-10T00:44:44.210Z,997.07
2019-05-10T00:45:44.201Z,997.00
2019-05-10T00:46:44.201Z,997.05
2019-05-10T00:47:44.171Z,997.01
2019-05-10T00:48:44.157Z,997.04
2019-05-10T00:49:44.183Z,997.03
2019-05-10T00:50:44.136Z,997.05
2019-05-10T00:51:44.134Z,997.01
2019-05-10T00:52:44.133Z,997.05
2019-05-10T00:53:44.120Z,996.99
2019-05-10T00:54:44.090Z,996.99
2019-05-10T00:55:44.087Z,997.03
2019-05-10T00:56:44.082Z,997.05
2019-05-10T00:57:44.054Z,997.03
2019-05-10T00:58:44.048Z,997.05
2019-05-10T00:59:44.055Z,997.08
2019-05-10T01:00:44.033Z,997.11
2019-05-10T01:01:44.008Z,997.04
2019-05-10T01:02:44.016Z,997.07
2019-05-10T01:03:43.988Z,997.06
2019-05-10T01:04:43.979Z,997.06
2019-05-10T01:05:43.966Z,997.08
2019-05-10T01:06:43.952Z,997.03
2019-05-10T01:07:43.969Z,997.12
2019-05-10T01:08:43.975Z,997.13
2019-05-10T01:09:43.925Z,997.13
2019-05-10T01:10:43.907Z,997.14
2019-05-10T01:11:43.956Z,997.10
2019-05-10T01:12:43.891Z,997.12
2019-05-10T01:13:43.882Z,997.16
2019-05-10T01:14:43.881Z,997.11
2019-05-10T01:15:46.806Z,997.13
2019-05-10T01:16:43.846Z,997.13
2019-05-10T01:17:43.830Z,997.15
2019-05-10T01:18:43.816Z,997.16
2019-05-10T01:19:43.825Z,997.17
2019-05-10T01:20:43.795Z,997.14
2019-05-10T01:21:43.783Z,997.16
2019-05-10T01:22:43.781Z,997.18
2019-05-10T01:23:43.763Z,997.13
2019-05-10T01:24:43.759Z,997.20
2019-05-10T01:25:43.764Z,997.17
2019-05-10T01:26:43.735Z,997.23
2019-05-10T01:27:43.734Z,997.19
2019-05-10T01:28:43.720Z,997.19
2019-05-10T01:29:43.697Z,997.20
2019-05-10T01:30:43.700Z,997.19
2019-05-10T01:31:43.683Z,997.21
2019-05-10T01:32:43.660Z,997.22
2019-05-10T01:33:43.650Z,997.22
2019-05-10T01:34:43.641Z,997.17
2019-05-10T01:35:43.635Z,997.20
2019-05-10T01:36:43.636Z,997.21
2019-05-10T01:37:43.616Z,997.18
2019-05-10T01:38:43.597Z,997.21
2019-05-10T01:39:43.581Z,997.23
2019-05-10T01:40:43.638Z,997.19
2019-05-10T01:41:43.568Z,997.19
2019-05-10T01:42:43.590Z,997.20
2019-05-10T01:43:43.538Z,997.21
2019-05-10T01:44:43.538Z,997.21
2019-05-10T01:45:43.533Z,997.20
2019-05-10T01:46:43.500Z,997.20
2019-05-10T01:47:43.494Z,997.22
2019-05-10T01:48:43.516Z,997.22
2019-05-10T01:49:43.518Z,997.25
2019-05-10T01:50:43.460Z,997.25
2019-05-10T01:51:43.445Z,997.26
2019-05-10T01:52:43.434Z,997.28
2019-05-10T01:53:43.428Z,997.32
2019-05-10T01:54:43.413Z,997.26
2019-05-10T01:55:52.330Z,997.28
2019-05-10T01:56:44.391Z,997.28
2019-05-10T01:57:43.411Z,997.25
2019-05-10T01:58:43.366Z,997.27
2019-05-10T01:59:43.357Z,997.30
2019-05-10T02:00:43.343Z,997.32
2019-05-10T02:01:43.362Z,997.30
2019-05-10T02:02:43.335Z,997.33
2019-05-10T02:03:43.319Z,997.33
2019-05-10T02:04:43.306Z,997.32
2019-05-10T02:05:43.289Z,997.28
2019-05-10T02:06:43.278Z,997.27
2019-05-10T02:07:43.282Z,997.33
2019-05-10T02:08:43.258Z,997.30
2019-05-10T02:09:43.243Z,997.36
2019-05-10T02:10:43.236Z,997.35
2019-05-10T02:11:43.219Z,997.34
2019-05-10T02:12:43.228Z,997.37
2019-05-10T02:13:43.195Z,997.32
2019-05-10T02:14:43.187Z,997.33
2019-05-10T02:15:43.183Z,997.34
2019-05-10T02:16:43.172Z,997.34
2019-05-10T02:17:43.179Z,997.33
2019-05-10T02:18:43.160Z,997.34
2019-05-10T02:19:43.149Z,997.35
2019-05-10T02:20:43.145Z,997.32
2019-05-10T02:21:43.112Z,997.34
2019-05-10T02:22:43.116Z,997.34
2019-05-10T02:23:43.089Z,997.36
2019-05-10T02:24:43.113Z,997.35
2019-05-10T02:25:43.088Z,997.38
2019-05-10T02:26:43.054Z,997.36
2019-05-10T02:27:43.045Z,997.36
2019-05-10T02:28:43.031Z,997.36
2019-05-10T02:29:43.028Z,997.40
2019-05-10T02:30:43.013Z,997.35
2019-05-10T02:31:43.034Z,997.33
2019-05-10T02:32:42.991Z,997.35
2019-05-10T02:33:42.975Z,997.36
2019-05-10T02:34:42.997Z,997.34
2019-05-10T02:35:43.010Z,997.33
2019-05-10T02:36:42.960Z,997.36
2019-05-10T02:37:42.953Z,997.33
2019-05-10T02:38:42.954Z,997.39
2019-05-10T02:39:42.915Z,997.39
2019-05-10T02:40:42.913Z,997.34
2019-05-10T02:41:42.887Z,997.40
2019-05-10T02:42:42.884Z,997.41
2019-05-10T02:43:42.876Z,997.43
2019-05-10T02:44:42.853Z,997.39
2019-05-10T02:45:42.848Z,997.43
2019-05-10T02:46:42.832Z,997.40
2019-05-10T02:47:42.822Z,997.43
2019-05-10T02:48:42.810Z,997.42
2019-05-10T02:49:42.811Z,997.48
2019-05-10T02:50:42.804Z,997.45
2019-05-10T02:51:42.784Z,997.46
2019-05-10T02:52:42.770Z,997.52
2019-05-10T02:53:42.754Z,997.48
2019-05-10T02:54:42.751Z,997.49
2019-05-10T02:55:42.743Z,997.50
2019-05-10T02:56:42.725Z,997.52
2019-05-10T02:57:42.713Z,997.51
2019-05-10T02:58:42.702Z,997.50
2019-05-10T02:59:42.688Z,997.50
2019-05-10T03:00:42.714Z,997.53
2019-05-10T03:01:42.663Z,997.53
2019-05-10T03:02:42.648Z,997.51
2019-05-10T03:03:42.646Z,997.54
2019-05-10T03:04:42.636Z,997.51
2019-05-10T03:05:47.838Z,997.53
2019-05-10T03:06:43.629Z,997.55
2019-05-10T03:07:42.680Z,997.57
2019-05-10T03:08:42.588Z,997.54
2019-05-10T03:09:42.575Z,997.58
2019-05-10T03:10:42.594Z,997.56
2019-05-10T03:11:42.574Z,997.55
2019-05-10T03:12:42.560Z,997.58
2019-05-10T03:13:42.534Z,997.58
2019-05-10T03:14:42.517Z,997.56
2019-05-10T03:15:42.518Z,997.56
2019-05-10T03:16:42.527Z,997.59
2019-05-10T03:17:42.519Z,997.58
2019-05-10T03:18:42.504Z,997.55
2019-05-10T03:19:42.466Z,997.59
2019-05-10T03:20:42.466Z,997.61
2019-05-10T03:21:42.439Z,997.57
2019-05-10T03:22:42.452Z,997.58
2019-05-10T03:23:42.433Z,997.55
2019-05-10T03:24:42.404Z,997.61
2019-05-10T03:25:42.392Z,997.60
2019-05-10T03:26:50.732Z,997.61
2019-05-10T03:27:43.394Z,997.64
2019-05-10T03:28:42.389Z,997.68
2019-05-10T03:29:42.348Z,997.64
2019-05-10T03:30:42.344Z,997.63
2019-05-10T03:31:42.328Z,997.62
2019-05-10T03:32:42.485Z,997.64
2019-05-10T03:33:42.353Z,997.63
2019-05-10T03:34:42.304Z,997.65
2019-05-10T03:35:42.297Z,997.66
2019-05-10T03:36:42.279Z,997.69
2019-05-10T03:37:42.262Z,997.70
2019-05-10T03:38:42.251Z,997.72
2019-05-10T03:39:42.298Z,997.74
2019-05-10T03:40:42.243Z,997.70
2019-05-10T03:41:42.217Z,997.76
2019-05-10T03:42:42.218Z,997.79
2019-05-10T03:43:42.202Z,997.78
2019-05-10T03:44:42.195Z,997.79
2019-05-10T03:45:42.168Z,997.76
2019-05-10T03:46:42.165Z,997.82
2019-05-10T03:47:42.206Z,997.75
2019-05-10T03:48:42.146Z,997.81
2019-05-10T03:49:42.171Z,997.80
2019-05-10T03:50:42.119Z,997.83
2019-05-10T03:51:42.102Z,997.86
2019-05-10T03:52:42.089Z,997.80
2019-05-10T03:53:42.095Z,997.85
2019-05-10T03:54:42.070Z,997.85
2019-05-10T03:55:42.083Z,997.90
2019-05-10T03:56:42.048Z,997.88
2019-05-10T03:57:42.059Z,997.89
2019-05-10T03:58:42.026Z,997.90
2019-05-10T03:59:42.016Z,997.88
2019-05-10T04:00:42.018Z,997.89
2019-05-10T04:01:41.994Z,997.90
2019-05-10T04:02:41.997Z,997.91
2019-05-10T04:03:41.992Z,997.93
2019-05-10T04:04:41.988Z,997.95
2019-05-10T04:05:41.971Z,997.98
2019-05-10T04:06:41.937Z,997.96
2019-05-10T04:07:41.977Z,997.96
2019-05-10T04:08:41.912Z,997.98
2019-05-10T04:09:41.923Z,998.00
2019-05-10T04:10:41.895Z,998.01
2019-05-10T04:11:41.883Z,998.03
2019-05-10T04:12:41.889Z,998.05
2019-05-10T04:13:41.856Z,998.02
2019-05-10T04:14:41.864Z,998.08
2019-05-10T04:15:41.858Z,998.09
2019-05-10T04:16:41.823Z,998.09
2019-05-10T04:17:41.820Z,998.05
2019-05-10T04:18:41.811Z,998.06
2019-05-10T04:19:41.791Z,998.15
2019-05-10T04:20:41.793Z,998.15
2019-05-10T04:21:41.773Z,998.12
2019-05-10T04:22:41.764Z,998.12
2019-05-10T04:23:41.743Z,998.14
2019-05-10T04:24:41.745Z,998.17
2019-05-10T04:25:41.741Z,998.23
2019-05-10T04:26:41.733Z,998.23
2019-05-10T04:27:41.743Z,998.25
2019-05-10T04:28:41.711Z,998.28
2019-05-10T04:29:41.687Z,998.31
2019-05-10T04:30:41.670Z,998.35
2019-05-10T04:31:41.675Z,998.36
2019-05-10T04:32:41.661Z,998.40
2019-05-10T04:33:41.631Z,998.35
2019-05-10T04:34:41.621Z,998.37
2019-05-10T04:35:41.609Z,998.38
2019-05-10T04:36:41.625Z,998.44
2019-05-10T04:37:41.641Z,998.45
2019-05-10T04:38:41.609Z,998.45
2019-05-10T04:39:41.565Z,998.45
2019-05-10T04:40:41.565Z,998.51
2019-05-10T04:41:41.556Z,998.48
2019-05-10T04:42:41.533Z,998.49
2019-05-10T04:43:41.557Z,998.50
2019-05-10T04:44:41.521Z,998.51
2019-05-10T04:45:41.526Z,998.53
2019-05-10T04:46:41.507Z,998.53
2019-05-10T04:47:41.498Z,998.53
2019-05-10T04:48:41.468Z,998.57
2019-05-10T04:49:41.487Z,998.58
2019-05-10T04:50:41.458Z,998.55
2019-05-10T04:51:41.433Z,998.59
2019-05-10T04:52:41.440Z,998.62
2019-05-10T04:53:41.422Z,998.64
2019-05-10T04:54:41.408Z,998.70
2019-05-10T04:55:41.386Z,998.69
2019-05-10T04:56:41.383Z,998.69
2019-05-10T04:57:50.733Z,998.71
2019-05-10T04:58:42.354Z,998.74
2019-05-10T04:59:41.350Z,998.78
2019-05-10T05:00:41.378Z,998.76
2019-05-10T05:01:41.347Z,998.78
2019-05-10T05:02:41.311Z,998.82
2019-05-10T05:03:41.312Z,998.81
2019-05-10T05:04:41.285Z,998.86
2019-05-10T05:05:41.276Z,998.88
2019-05-10T05:06:41.280Z,998.88
2019-05-10T05:07:41.286Z,998.90
2019-05-10T05:08:41.284Z,998.94
2019-05-10T05:09:41.236Z,998.93
2019-05-10T05:10:41.236Z,998.99
2019-05-10T05:11:41.211Z,999.05
2019-05-10T05:12:41.214Z,998.99
2019-05-10T05:13:41.204Z,999.06
2019-05-10T05:14:41.183Z,999.05
2019-05-10T05:15:41.183Z,999.03
2019-05-10T05:16:41.153Z,999.08
2019-05-10T05:17:41.143Z,999.10
2019-05-10T05:18:41.163Z,999.12
2019-05-10T05:19:41.162Z,999.15
2019-05-10T05:20:41.110Z,999.15
2019-05-10T05:21:41.118Z,999.16
2019-05-10T05:22:41.086Z,999.19
2019-05-10T05:23:41.077Z,999.23
2019-05-10T05:24:41.081Z,999.20
2019-05-10T05:25:41.899Z,999.27
2019-05-10T05:26:41.041Z,999.29
2019-05-10T05:27:41.029Z,999.28
2019-05-10T05:28:41.022Z,999.32
2019-05-10T05:29:41.022Z,999.37
2019-05-10T05:30:41.021Z,999.36
2019-05-10T05:31:40.993Z,999.36
2019-05-10T05:32:44.401Z,999.44
2019-05-10T05:33:40.959Z,999.43
2019-05-10T05:34:40.949Z,999.43
2019-05-10T05:35:40.940Z,999.47
2019-05-10T05:36:40.956Z,999.50
2019-05-10T05:37:40.924Z,999.48
2019-05-10T05:38:47.246Z,999.53
2019-05-10T05:39:41.893Z,999.55
2019-05-10T05:40:40.936Z,999.50
2019-05-10T05:41:49.216Z,999.53
2019-05-10T05:42:41.882Z,999.58
2019-05-10T05:43:45.663Z,999.61
2019-05-10T05:44:41.868Z,999.57
2019-05-10T05:45:40.828Z,999.61
2019-05-10T05:46:40.830Z,999.68
2019-05-10T05:47:42.187Z,999.63
2019-05-10T05:48:40.876Z,999.67
2019-05-10T05:49:40.799Z,999.67
2019-05-10T05:50:40.774Z,999.73
2019-05-10T05:51:40.772Z,999.72
2019-05-10T05:52:40.750Z,999.73
2019-05-10T05:53:42.507Z,999.73
2019-05-10T05:54:40.742Z,999.71
2019-05-10T05:55:40.715Z,999.77
2019-05-10T05:56:44.492Z,999.74
2019-05-10T05:57:41.690Z,999.75
2019-05-10T05:58:44.555Z,999.77
2019-05-10T05:59:41.679Z,999.83
2019-05-10T06:00:44.753Z,999.82
2019-05-10T06:01:41.660Z,999.85
2019-05-10T06:02:44.837Z,999.91
2019-05-10T06:03:41.627Z,999.94
2019-05-10T06:04:45.860Z,1000.00
2019-05-10T06:05:41.597Z,999.97
2019-05-10T06:06:40.607Z,1000.01
2019-05-10T06:07:40.602Z,1000.07
2019-05-10T06:08:40.566Z,1000.10
2019-05-10T06:09:40.576Z,1000.12
2019-05-10T06:10:43.766Z,1000.12
2019-05-10T06:11:40.535Z,1000.13
2019-05-10T06:12:44.495Z,1000.13
2019-05-10T06:13:41.530Z,1000.14
2019-05-10T06:14:43.166Z,1000.13
2019-05-10T06:15:41.482Z,1000.16
2019-05-10T06:16:44.944Z,1000.16
2019-05-10T06:17:41.490Z,1000.17
2019-05-10T06:18:41.718Z,1000.17
2019-05-10T06:19:41.452Z,1000.24
2019-05-10T06:20:44.470Z,1000.25
2019-05-10T06:21:41.420Z,1000.27
2019-05-10T06:22:43.873Z,1000.30
2019-05-10T06:23:41.420Z,1000.37
2019-05-10T06:24:40.422Z,1000.35
2019-05-10T06:25:42.620Z,1000.38
2019-05-10T06:26:40.381Z,1000.43
2019-05-10T06:27:43.027Z,1000.50
2019-05-10T06:28:58.201Z,1000.43
2019-05-10T06:29:43.132Z,1000.44
2019-05-10T06:30:40.315Z,1000.50
2019-05-10T06:31:40.308Z,1000.49
2019-05-10T06:32:40.321Z,1000.51
2019-05-10T06:33:45.165Z,1000.54
2019-05-10T06:34:41.298Z,1000.61
2019-05-10T06:35:40.271Z,1000.60
2019-05-10T06:36:40.299Z,1000.62
2019-05-10T06:37:40.250Z,1000.63
2019-05-10T06:38:40.241Z,1000.63
2019-05-10T06:39:40.219Z,1000.67
2019-05-10T06:40:46.732Z,1000.66
2019-05-10T06:41:41.221Z,1000.67
2019-05-10T06:42:40.179Z,1000.65
2019-05-10T06:43:40.193Z,1000.66
2019-05-10T06:44:40.184Z,1000.69
2019-05-10T06:45:40.150Z,1000.68
2019-05-10T06:46:40.134Z,1000.71
2019-05-10T06:47:41.998Z,1000.69
2019-05-10T06:48:41.122Z,1000.70
2019-05-10T06:49:41.673Z,1000.66
2019-05-10T06:50:41.118Z,1000.68
2019-05-10T06:51:42.914Z,1000.69
2019-05-10T06:52:41.070Z,1000.69
2019-05-10T06:53:42.301Z,1000.69
2019-05-10T06:54:41.081Z,1000.73
2019-05-10T06:55:40.073Z,1000.71
2019-05-10T06:56:40.035Z,1000.74
2019-05-10T06:57:40.010Z,1000.72
2019-05-10T06:58:40.039Z,1000.70
2019-05-10T06:59:39.995Z,1000.81
2019-05-10T07:00:44.921Z,1000.83
2019-05-10T07:01:45.212Z,1000.78
2019-05-10T07:02:40.998Z,1000.80
2019-05-10T07:03:39.951Z,1000.83
2019-05-10T07:04:41.163Z,1000.87
2019-05-10T07:05:39.969Z,1000.85
2019-05-10T07:06:39.946Z,1000.89
2019-05-10T07:07:45.165Z,1000.90
2019-05-10T07:08:44.527Z,1000.90
2019-05-10T07:10:01.445Z,1000.92
2019-05-10T07:10:40.903Z,1000.94
2019-05-10T07:11:39.858Z,1000.94
2019-05-10T07:12:39.862Z,1000.92
2019-05-10T07:13:46.059Z,1000.97
2019-05-10T07:14:45.893Z,1000.99
2019-05-10T07:15:42.736Z,1001.00
2019-05-10T07:16:39.827Z,1001.01
2019-05-10T07:17:45.148Z,1001.03
2019-05-10T07:18:40.800Z,1001.04
2019-05-10T07:19:41.624Z,1001.07
2019-05-10T07:20:43.173Z,1001.06
2019-05-10T07:21:44.850Z,1001.11
2019-05-10T07:22:40.822Z,1001.15
2019-05-10T07:23:44.789Z,1001.13
2019-05-10T07:24:40.734Z,1001.18
2019-05-10T07:25:43.724Z,1001.20
2019-05-10T07:26:40.690Z,1001.16
2019-05-10T07:27:39.678Z,1001.23
2019-05-10T07:28:39.711Z,1001.26
2019-05-10T07:29:43.450Z,1001.21
2019-05-10T07:30:41.605Z,1001.23
2019-05-10T07:31:39.647Z,1001.21
2019-05-10T07:32:39.640Z,1001.25
2019-05-10T07:33:40.238Z,1001.28
2019-05-10T07:34:39.627Z,1001.28
2019-05-10T07:35:39.783Z,1001.34
2019-05-10T07:36:39.568Z,1001.35
2019-05-10T07:37:39.563Z,1001.40
2019-05-10T07:38:39.547Z,1001.41
2019-05-10T07:39:39.538Z,1001.46
2019-05-10T07:40:39.533Z,1001.50
2019-05-10T07:41:39.557Z,1001.52
2019-05-10T07:42:45.118Z,1001.57
2019-05-10T07:43:40.485Z,1001.59
2019-05-10T07:44:41.382Z,1001.59
2019-05-10T07:45:40.486Z,1001.58
2019-05-10T07:46:39.931Z,1001.66
2019-05-10T07:47:40.441Z,1001.68
2019-05-10T07:48:41.345Z,1001.71
2019-05-10T07:49:40.420Z,1001.73
2019-05-10T07:50:42.471Z,1001.79
2019-05-10T07:51:40.411Z,1001.77
2019-05-10T07:52:43.357Z,1001.85
2019-05-10T07:53:40.392Z,1001.87
2019-05-10T07:54:45.116Z,1001.87
2019-05-10T07:55:40.351Z,1001.90
2019-05-10T07:57:40.345Z,1001.88
2019-05-10T07:58:43.263Z,1001.91
2019-05-10T07:59:49.983Z,1001.91
2019-05-10T08:00:44.484Z,1001.95
2019-05-10T08:01:40.292Z,1001.94
2019-05-10T08:02:39.273Z,1001.98
2019-05-10T08:03:44.149Z,1001.98
2019-05-10T08:04:40.249Z,1002.01
2019-05-10T08:05:39.347Z,1002.01
2019-05-10T08:06:43.822Z,1002.01
2019-05-10T08:07:40.217Z,1002.12
2019-05-10T08:08:39.375Z,1002.15
2019-05-10T08:09:44.848Z,1002.07
2019-05-10T08:10:40.208Z,1002.07
2019-05-10T08:11:39.278Z,1002.20
2019-05-10T08:12:43.858Z,1002.21
2019-05-10T08:13:40.164Z,1002.24
2019-05-10T08:14:39.473Z,1002.22
2019-05-10T08:15:40.128Z,1002.22
2019-05-10T08:16:39.131Z,1002.22
2019-05-10T08:17:41.063Z,1002.24
2019-05-10T08:18:42.483Z,1002.20
2019-05-10T08:19:39.110Z,1002.21
2019-05-10T08:20:49.300Z,1002.30
2019-05-10T08:21:41.969Z,1002.26
2019-05-10T08:22:41.229Z,1002.27
2019-05-10T08:23:40.990Z,1002.27
2019-05-10T08:24:44.631Z,1002.26
2019-05-10T08:25:43.942Z,1002.27
2019-05-10T08:26:42.458Z,1002.25
2019-05-10T08:27:43.917Z,1002.28
2019-05-10T08:28:44.433Z,1002.29
2019-05-10T08:29:38.970Z,1002.28
2019-05-10T08:30:43.713Z,1002.30
2019-05-10T08:31:44.137Z,1002.31
2019-05-10T08:32:42.353Z,1002.29
2019-05-10T08:33:44.193Z,1002.32
2019-05-10T08:34:50.682Z,1002.35
2019-05-10T08:35:43.404Z,1002.42
2019-05-10T08:36:45.817Z,1002.38
2019-05-10T08:37:39.900Z,1002.39
2019-05-10T08:38:39.589Z,1002.42
2019-05-10T08:39:45.296Z,1002.40
2019-05-10T08:40:42.451Z,1002.46
2019-05-10T08:41:38.851Z,1002.46
2019-05-10T08:42:45.370Z,1002.47
2019-05-10T08:43:40.773Z,1002.50
2019-05-10T08:44:38.802Z,1002.50
2019-05-10T08:45:44.074Z,1002.53
2019-05-10T08:46:41.587Z,1002.53
2019-05-10T08:47:38.801Z,1002.49
2019-05-10T08:48:46.202Z,1002.50
2019-05-10T08:49:54.217Z,1002.50
2019-05-10T08:50:52.259Z,1002.57
2019-05-10T08:51:44.894Z,1002.53
2019-05-10T08:52:42.094Z,1002.57
2019-05-10T08:53:38.754Z,1002.56
2019-05-10T08:54:38.696Z,1002.58
2019-05-10T08:55:38.700Z,1002.60
2019-05-10T08:56:38.676Z,1002.59
2019-05-10T08:57:44.425Z,1002.58
2019-05-10T08:58:42.005Z,1002.61
2019-05-10T08:59:38.653Z,1002.63
2019-05-10T09:00:53.305Z,1002.68
2019-05-10T09:01:46.929Z,1002.67
2019-05-10T09:02:39.601Z,1002.71
2019-05-10T09:03:38.591Z,1002.70
2019-05-10T09:04:43.754Z,1002.72
2019-05-10T09:05:40.144Z,1002.70
2019-05-10T09:06:38.560Z,1002.69
2019-05-10T09:07:39.070Z,1002.66
2019-05-10T09:08:38.534Z,1002.71
2019-05-10T09:09:45.584Z,1002.72
2019-05-10T09:10:41.988Z,1002.79
2019-05-10T09:11:38.517Z,1002.75
2019-05-10T09:12:41.718Z,1002.77
2019-05-10T09:13:42.645Z,1002.76
2019-05-10T09:14:39.466Z,1002.79
2019-05-10T09:15:43.290Z,1002.81
2019-05-10T09:16:44.196Z,1002.84
2019-05-10T09:17:39.435Z,1002.82
2019-05-10T09:18:46.219Z,1002.84
2019-05-10T09:19:41.717Z,1002.91
2019-05-10T09:20:38.402Z,1002.89
2019-05-10T09:21:41.247Z,1002.90
2019-05-10T09:22:39.381Z,1002.92
2019-05-10T09:23:38.380Z,1002.93
2019-05-10T09:24:43.162Z,1002.92
2019-05-10T09:25:39.353Z,1002.97
2019-05-10T09:26:38.332Z,1002.98
2019-05-10T09:27:38.319Z,1002.99
2019-05-10T09:28:38.312Z,1002.97
2019-05-10T09:29:38.322Z,1002.96
2019-05-10T09:30:52.340Z,1002.94
2019-05-10T09:31:44.533Z,1002.98
2019-05-10T09:32:39.991Z,1002.94
2019-05-10T09:33:43.293Z,1003.01
2019-05-10T09:34:39.263Z,1002.96
2019-05-10T09:35:38.894Z,1002.98
2019-05-10T09:36:39.227Z,1002.96
2019-05-10T09:37:38.246Z,1002.98
2019-05-10T09:38:40.409Z,1002.99
2019-05-10T09:39:38.186Z,1003.05
2019-05-10T09:40:42.530Z,1003.00
2019-05-10T09:41:39.161Z,1003.01
2019-05-10T09:42:40.794Z,1003.01
2019-05-10T09:43:40.428Z,1003.03
2019-05-10T09:44:39.131Z,1003.02
2019-05-10T09:45:38.132Z,1003.08
2019-05-10T09:46:38.115Z,1003.10
2019-05-10T09:47:38.092Z,1003.14
2019-05-10T09:48:38.084Z,1003.14
2019-05-10T09:49:38.075Z,1003.18
2019-05-10T09:50:44.235Z,1003.21
2019-05-10T09:51:39.096Z,1003.24
2019-05-10T09:52:38.091Z,1003.23
2019-05-10T09:53:38.487Z,1003.28
2019-05-10T09:54:38.197Z,1003.34
2019-05-10T09:55:38.018Z,1003.35
2019-05-10T09:56:42.740Z,1003.37
2019-05-10T09:57:39.005Z,1003.42
2019-05-10T09:58:38.758Z,1003.43
2019-05-10T09:59:37.975Z,1003.50
2019-05-10T10:00:38.230Z,1003.48
2019-05-10T10:01:37.943Z,1003.48
2019-05-10T10:02:40.623Z,1003.56
2019-05-10T10:03:43.229Z,1003.55
2019-05-10T10:04:38.932Z,1003.55
2019-05-10T10:05:40.186Z,1003.61
2019-05-10T10:06:41.792Z,1003.59
2019-05-10T10:07:38.871Z,1003.57
2019-05-10T10:08:38.492Z,1003.59
2019-05-10T10:09:44.354Z,1003.64
2019-05-10T10:10:38.831Z,1003.63
2019-05-10T10:11:37.824Z,1003.67
2019-05-10T10:12:37.840Z,1003.69
2019-05-10T10:13:43.406Z,1003.71
2019-05-10T10:14:43.108Z,1003.69
2019-05-10T10:15:37.787Z,1003.79
2019-05-10T10:16:37.774Z,1003.74
2019-05-10T10:17:42.215Z,1003.78
2019-05-10T10:18:37.817Z,1003.78
2019-05-10T10:19:40.597Z,1003.74
2019-05-10T10:20:43.406Z,1003.76
2019-05-10T10:21:39.075Z,1003.79
2019-05-10T10:22:38.251Z,1003.79
2019-05-10T10:23:37.923Z,1003.74
2019-05-10T10:24:40.857Z,1003.77
2019-05-10T10:25:40.484Z,1003.80
2019-05-10T10:26:38.039Z,1003.82
2019-05-10T10:27:39.513Z,1003.81
2019-05-10T10:28:39.670Z,1003.82
2019-05-10T10:29:38.753Z,1003.82
2019-05-10T10:30:37.610Z,1003.79
2019-05-10T10:31:48.362Z,1003.81
2019-05-10T10:32:38.610Z,1003.80
2019-05-10T10:33:38.064Z,1003.81
2019-05-10T10:34:41.145Z,1003.83
2019-05-10T10:35:38.554Z,1003.80
2019-05-10T10:36:40.162Z,1003.84
2019-05-10T10:37:38.587Z,1003.82
2019-05-10T10:38:45.492Z,1003.85
2019-05-10T10:39:38.522Z,1003.84
2019-05-10T10:40:44.339Z,1003.84
2019-05-10T10:41:38.490Z,1003.84
2019-05-10T10:42:38.173Z,1003.84
2019-05-10T10:43:37.468Z,1003.85
2019-05-10T10:44:37.452Z,1003.86
2019-05-10T10:45:37.854Z,1003.95
2019-05-10T10:46:37.462Z,1003.94
2019-05-10T10:47:38.116Z,1003.91
2019-05-10T10:48:37.405Z,1003.88
2019-05-10T10:49:37.897Z,1003.90
2019-05-10T10:50:37.441Z,1003.93
2019-05-10T10:51:37.907Z,1003.89
2019-05-10T10:52:37.688Z,1003.89
2019-05-10T10:53:37.357Z,1003.89
2019-05-10T10:54:39.778Z,1003.90
2019-05-10T10:55:40.203Z,1003.94
2019-05-10T10:56:37.534Z,1003.94
2019-05-10T10:57:37.493Z,1003.94
2019-05-10T10:58:37.292Z,1003.92
2019-05-10T10:59:37.517Z,1003.93
2019-05-10T11:00:38.913Z,1003.91
2019-05-10T11:01:48.994Z,1003.90
2019-05-10T11:02:41.255Z,1003.84
2019-05-10T11:03:37.233Z,1003.82
2019-05-10T11:04:40.638Z,1003.87
2019-05-10T11:05:38.211Z,1003.89
2019-05-10T11:06:37.209Z,1003.86
2019-05-10T11:07:41.084Z,1003.83
2019-05-10T11:08:38.196Z,1003.86
2019-05-10T11:09:37.207Z,1003.90
2019-05-10T11:10:37.184Z,1003.85
2019-05-10T11:11:41.248Z,1003.82
2019-05-10T11:12:38.157Z,1003.79
2019-05-10T11:13:44.102Z,1003.82
2019-05-10T11:14:39.815Z,1003.81
2019-05-10T11:15:38.119Z,1003.81
2019-05-10T11:16:37.100Z,1003.81
2019-05-10T11:17:37.125Z,1003.84
2019-05-10T11:18:37.066Z,1003.81
2019-05-10T11:19:37.079Z,1003.81
2019-05-10T11:20:42.035Z,1003.79
2019-05-10T11:21:38.042Z,1003.77
2019-05-10T11:22:41.883Z,1003.77
2019-05-10T11:23:39.273Z,1003.77
2019-05-10T11:24:36.994Z,1003.75
2019-05-10T11:25:42.805Z,1003.78
2019-05-10T11:26:37.981Z,1003.82
2019-05-10T11:27:36.964Z,1003.84
2019-05-10T11:28:38.990Z,1003.82
2019-05-10T11:29:37.968Z,1003.83
2019-05-10T11:30:36.925Z,1003.83
2019-05-10T11:31:36.926Z,1003.85
2019-05-10T11:32:36.920Z,1003.83
2019-05-10T11:33:36.917Z,1003.86
2019-05-10T11:34:37.811Z,1003.87
2019-05-10T11:35:36.886Z,1003.85
2019-05-10T11:36:40.412Z,1003.92
2019-05-10T11:37:37.856Z,1003.89
2019-05-10T11:38:36.840Z,1003.89
2019-05-10T11:39:45.172Z,1003.88
2019-05-10T11:40:37.833Z,1003.92
2019-05-10T11:41:36.821Z,1003.93
2019-05-10T11:42:37.502Z,1003.90
2019-05-10T11:43:37.778Z,1003.94
2019-05-10T11:44:41.525Z,1003.94
2019-05-10T11:45:41.291Z,1003.95
2019-05-10T11:46:37.762Z,1003.89
2019-05-10T11:47:36.733Z,1003.90
2019-05-10T11:48:37.724Z,1003.86
2019-05-10T11:49:36.714Z,1003.97
2019-05-10T11:50:36.709Z,1003.91
2019-05-10T11:51:36.715Z,1003.89
2019-05-10T11:52:36.698Z,1003.84
2019-05-10T11:53:36.669Z,1003.93
2019-05-10T11:54:36.655Z,1003.95
2019-05-10T11:55:40.241Z,1003.88
2019-05-10T11:56:37.650Z,1003.92
2019-05-10T11:57:42.613Z,1004.00
2019-05-10T11:59:41.269Z,1003.96
2019-05-10T12:00:36.592Z,1004.01
2019-05-10T12:01:41.472Z,1004.04
2019-05-10T12:03:37.575Z,1004.13
2019-05-10T12:04:39.617Z,1004.09
2019-05-10T12:05:37.537Z,1004.14
2019-05-10T12:06:41.222Z,1004.13
2019-05-10T12:07:45.370Z,1004.12
2019-05-10T12:08:37.521Z,1004.15
2019-05-10T12:09:36.497Z,1004.15
2019-05-10T12:10:43.119Z,1004.17
2019-05-10T12:11:42.175Z,1004.19
2019-05-10T12:12:53.898Z,1004.20
2019-05-10T12:13:37.448Z,1004.16
2019-05-10T12:14:36.475Z,1004.19
2019-05-10T12:15:36.427Z,1004.19
2019-05-10T12:16:36.414Z,1004.17
2019-05-10T12:17:36.403Z,1004.20
2019-05-10T12:18:36.580Z,1004.21
2019-05-10T12:19:44.686Z,1004.23